createdAt,value
2022-08-20T00:01:16.019Z,19.80
2022-08-20T00:03:55.702Z,21.08
2022-08-20T00:06:30.378Z,19.95
2022-08-20T00:09:04.731Z,20.30
2022-08-20T00:11:46.467Z,19.33
2022-08-20T00:14:16.113Z,20.33
2022-08-20T00:16:48.864Z,22.58
2022-08-20T00:19:28.722Z,20.98
2022-08-20T00:22:01.832Z,20.00
2022-08-20T00:24:35.241Z,19.13
2022-08-20T00:27:12.329Z,20.90
2022-08-20T00:29:41.805Z,23.52
2022-08-20T00:32:19.963Z,21.92
2022-08-20T00:34:55.891Z,23.27
2022-08-20T00:37:26.000Z,26.88
2022-08-20T00:39:59.137Z,27.90
2022-08-20T00:42:28.488Z,25.27
2022-08-20T00:45:00.914Z,30.08
2022-08-20T00:47:33.670Z,28.40
2022-08-20T00:50:11.603Z,27.60
2022-08-20T00:52:53.010Z,27.85
2022-08-20T00:55:31.652Z,26.83
2022-08-20T00:58:10.302Z,28.15
2022-08-20T01:00:49.427Z,29.55
2022-08-20T01:03:22.037Z,30.50
2022-08-20T01:05:58.901Z,34.25
2022-08-20T01:08:31.062Z,30.48
2022-08-20T01:11:19.400Z,27.90
2022-08-20T01:13:58.072Z,22.25
2022-08-20T01:16:34.294Z,26.17
2022-08-20T01:19:29.696Z,26.35
2022-08-20T01:22:23.264Z,25.13
2022-08-20T01:24:58.788Z,27.97
2022-08-20T01:27:31.684Z,28.23
2022-08-20T01:30:06.211Z,31.20
2022-08-20T01:32:40.125Z,24.25
2022-08-20T01:35:18.377Z,30.50
2022-08-20T01:37:53.033Z,33.25
2022-08-20T01:40:35.060Z,27.43
2022-08-20T01:43:06.849Z,31.67
2022-08-20T01:45:40.172Z,32.90
2022-08-20T01:48:12.359Z,34.17
2022-08-20T01:50:48.604Z,32.17
2022-08-20T01:53:27.273Z,27.93
2022-08-20T01:55:56.773Z,37.87
2022-08-20T01:58:30.258Z,40.57
2022-08-20T02:01:03.059Z,38.83
2022-08-20T02:03:38.029Z,48.53
2022-08-20T02:06:10.706Z,35.07
2022-08-20T02:08:40.213Z,41.03
2022-08-20T02:11:10.505Z,42.73
2022-08-20T02:13:43.869Z,42.50
2022-08-20T02:16:15.627Z,40.00
2022-08-20T02:18:46.232Z,45.43
2022-08-20T02:21:15.634Z,45.73
2022-08-20T02:23:47.320Z,45.33
2022-08-20T02:26:20.878Z,42.87
2022-08-20T02:28:53.569Z,50.30
2022-08-20T02:31:26.804Z,43.10
2022-08-20T02:34:22.478Z,51.77
2022-08-20T02:36:50.267Z,45.80
2022-08-20T02:39:20.397Z,46.80
2022-08-20T02:41:53.066Z,44.93
2022-08-20T02:44:27.710Z,45.83
2022-08-20T02:47:03.239Z,41.80
2022-08-20T02:49:35.132Z,42.00
2022-08-20T02:52:10.033Z,55.07
2022-08-20T02:54:42.188Z,51.70
2022-08-20T02:57:16.252Z,48.40
2022-08-20T02:59:49.277Z,48.10
2022-08-20T03:02:21.130Z,46.37
2022-08-20T03:04:51.591Z,49.40
2022-08-20T03:07:27.114Z,51.73
2022-08-20T03:09:56.661Z,52.67
2022-08-20T03:12:26.381Z,47.53
2022-08-20T03:14:58.407Z,44.33
2022-08-20T03:17:28.055Z,49.90
2022-08-20T03:19:57.335Z,40.07
2022-08-20T03:22:26.984Z,55.63
2022-08-20T03:24:57.486Z,53.73
2022-08-20T03:27:26.984Z,41.30
2022-08-20T03:30:09.827Z,43.43
2022-08-20T03:32:43.550Z,49.50
2022-08-20T03:35:23.404Z,49.33
2022-08-20T03:37:55.856Z,45.20
2022-08-20T03:40:33.018Z,43.20
2022-08-20T03:43:03.527Z,48.17
2022-08-20T03:45:37.091Z,54.33
2022-08-20T03:48:16.575Z,37.13
2022-08-20T03:50:47.304Z,46.10
2022-08-20T03:53:17.655Z,49.83
2022-08-20T03:56:00.460Z,44.20
2022-08-20T03:58:36.636Z,45.43
2022-08-20T04:01:36.890Z,51.05
2022-08-20T04:03:59.313Z,47.57
2022-08-20T04:06:29.683Z,45.93
2022-08-20T04:09:04.592Z,42.17
2022-08-20T04:11:34.501Z,50.53
2022-08-20T04:14:05.573Z,46.97
2022-08-20T04:16:38.470Z,50.30
2022-08-20T04:19:14.079Z,50.67
2022-08-20T04:21:51.532Z,67.90
2022-08-20T04:24:31.678Z,53.70
2022-08-20T04:27:06.683Z,52.07
2022-08-20T04:29:37.617Z,45.93
2022-08-20T04:32:09.058Z,68.80
2022-08-20T04:34:38.990Z,61.80
2022-08-20T04:37:16.610Z,51.73
2022-08-20T04:40:09.290Z,66.60
2022-08-20T04:42:39.905Z,59.27
2022-08-20T04:45:13.752Z,50.77
2022-08-20T04:47:45.067Z,55.90
2022-08-20T04:50:15.563Z,64.33
2022-08-20T04:52:48.195Z,52.33
2022-08-20T04:55:19.636Z,60.53
2022-08-20T04:57:52.088Z,64.63
2022-08-20T05:00:22.473Z,60.57
2022-08-20T05:02:53.740Z,63.77
2022-08-20T05:05:23.988Z,55.03
2022-08-20T05:07:55.753Z,49.17
2022-08-20T05:10:25.821Z,50.43
2022-08-20T05:12:57.427Z,58.57
2022-08-20T05:15:29.442Z,57.93
2022-08-20T05:18:07.827Z,42.00
2022-08-20T05:20:40.368Z,44.57
2022-08-20T05:23:14.636Z,34.43
2022-08-20T05:25:46.312Z,37.87
2022-08-20T05:28:21.239Z,41.03
2022-08-20T05:30:51.244Z,40.77
2022-08-20T05:33:30.028Z,40.38
2022-08-20T05:35:59.769Z,34.60
2022-08-20T05:38:31.446Z,34.63
2022-08-20T05:41:01.348Z,35.60
2022-08-20T05:43:34.214Z,24.13
2022-08-20T05:46:08.466Z,25.80
2022-08-20T05:48:41.555Z,22.60
2022-08-20T05:51:15.046Z,23.95
2022-08-20T05:53:47.930Z,23.60
2022-08-20T05:56:19.707Z,21.45
2022-08-20T05:58:59.091Z,21.92
2022-08-20T06:01:43.229Z,20.48
2022-08-20T06:04:27.746Z,20.35
2022-08-20T06:07:00.212Z,19.83
2022-08-20T06:09:32.622Z,19.10
2022-08-20T06:12:09.286Z,19.05
2022-08-20T06:14:39.019Z,19.15
2022-08-20T06:17:17.501Z,17.38
2022-08-20T06:19:52.619Z,18.95
2022-08-20T06:22:36.470Z,20.25
2022-08-20T06:25:17.487Z,20.00
2022-08-20T06:27:49.027Z,18.55
2022-08-20T06:30:30.306Z,19.25
2022-08-20T06:33:01.090Z,19.80
2022-08-20T06:35:38.611Z,19.50
2022-08-20T06:38:10.271Z,16.95
2022-08-20T06:40:47.857Z,17.52
2022-08-20T06:43:25.088Z,17.38
2022-08-20T06:46:00.924Z,17.77
2022-08-20T06:48:30.944Z,17.60
2022-08-20T06:51:11.021Z,18.63
2022-08-20T06:53:48.334Z,17.40
2022-08-20T06:56:27.827Z,16.67
2022-08-20T06:59:03.862Z,13.90
2022-08-20T07:01:40.424Z,15.40
2022-08-20T07:04:10.217Z,16.45
2022-08-20T07:06:46.307Z,15.73
2022-08-20T07:09:15.993Z,15.10
2022-08-20T07:11:53.044Z,14.88
2022-08-20T07:14:33.475Z,14.93
2022-08-20T07:17:35.005Z,13.48
2022-08-20T07:20:20.657Z,13.98
2022-08-20T07:23:03.932Z,14.25
2022-08-20T07:25:50.940Z,14.13
2022-08-20T07:28:37.148Z,13.10
2022-08-20T07:31:27.910Z,14.82
2022-08-20T07:34:02.369Z,14.13
2022-08-20T07:36:41.540Z,14.75
2022-08-20T07:39:20.961Z,14.07
2022-08-20T07:42:04.832Z,14.38
2022-08-20T07:44:44.940Z,12.77
2022-08-20T07:47:23.456Z,14.88
2022-08-20T07:50:14.126Z,15.15
2022-08-20T07:52:58.909Z,14.02
2022-08-20T07:55:36.825Z,15.20
2022-08-20T07:58:15.881Z,14.70
2022-08-20T08:00:48.085Z,14.80
2022-08-20T08:03:40.644Z,13.88
2022-08-20T08:06:31.074Z,14.18
2022-08-20T08:09:06.949Z,14.70
2022-08-20T08:11:49.445Z,13.88
2022-08-20T08:14:34.136Z,12.98
2022-08-20T08:17:10.137Z,12.52
2022-08-20T08:19:46.401Z,11.00
2022-08-20T08:22:23.958Z,9.18
2022-08-20T08:25:01.299Z,9.40
2022-08-20T08:27:38.383Z,8.48
2022-08-20T08:30:14.885Z,7.43
2022-08-20T08:33:04.525Z,6.15
2022-08-20T08:35:37.043Z,6.28
2022-08-20T08:38:06.800Z,6.10
2022-08-20T08:40:51.568Z,5.57
2022-08-20T08:43:41.736Z,5.20
2022-08-20T08:46:18.009Z,5.50
2022-08-20T08:48:53.744Z,5.82
2022-08-20T08:51:35.852Z,8.73
2022-08-20T08:54:08.030Z,6.40
2022-08-20T08:56:49.744Z,5.97
2022-08-20T08:59:27.625Z,5.90
2022-08-20T09:02:33.540Z,4.10
2022-08-20T09:05:17.046Z,6.75
2022-08-20T09:07:54.270Z,7.25
2022-08-20T09:10:29.752Z,3.83
2022-08-20T09:13:11.796Z,2.97
2022-08-20T09:15:47.891Z,3.58
2022-08-20T09:18:43.686Z,3.30
2022-08-20T09:21:20.306Z,2.55
2022-08-20T09:23:56.294Z,3.42
2022-08-20T09:26:35.365Z,4.53
2022-08-20T09:29:12.270Z,3.10
2022-08-20T09:31:53.436Z,3.05
2022-08-20T09:34:33.267Z,4.45
2022-08-20T09:37:11.822Z,2.70
2022-08-20T09:39:49.990Z,1.98
2022-08-20T09:42:22.951Z,3.08
2022-08-20T09:44:57.355Z,2.50
2022-08-20T09:47:36.874Z,3.25
2022-08-20T09:50:26.327Z,4.38
2022-08-20T09:53:09.170Z,1.77
2022-08-20T09:55:44.125Z,3.83
2022-08-20T09:58:22.724Z,2.53
2022-08-20T10:01:02.831Z,2.53
2022-08-20T10:03:43.756Z,3.40
2022-08-20T10:06:20.673Z,4.00
2022-08-20T10:09:01.257Z,4.13
2022-08-20T10:11:32.901Z,3.25
2022-08-20T10:14:09.185Z,3.22
2022-08-20T10:16:46.148Z,3.78
2022-08-20T10:19:21.544Z,2.65
2022-08-20T10:21:59.117Z,3.08
2022-08-20T10:24:46.326Z,3.28
2022-08-20T10:27:22.667Z,3.70
2022-08-20T10:29:55.758Z,4.38
2022-08-20T10:32:28.878Z,2.00
2022-08-20T10:35:17.893Z,3.28
2022-08-20T10:37:50.155Z,4.40
2022-08-20T10:40:23.915Z,2.45
2022-08-20T10:43:01.529Z,3.65
2022-08-20T10:45:44.743Z,9.05
2022-08-20T10:48:26.628Z,6.85
2022-08-20T10:51:02.733Z,8.00
2022-08-20T10:53:34.926Z,8.48
2022-08-20T10:56:22.975Z,9.80
2022-08-20T10:58:59.157Z,11.82
2022-08-20T11:01:45.392Z,6.35
2022-08-20T11:04:17.549Z,4.80
2022-08-20T11:06:57.001Z,4.43
2022-08-20T11:09:34.683Z,5.10
2022-08-20T11:12:11.639Z,6.55
2022-08-20T11:14:47.172Z,6.93
2022-08-20T11:17:40.863Z,6.65
2022-08-20T11:20:21.682Z,6.93
2022-08-20T11:23:03.419Z,5.45
2022-08-20T11:25:45.375Z,8.07
2022-08-20T11:28:31.206Z,7.47
2022-08-20T11:31:12.759Z,7.45
2022-08-20T11:33:43.592Z,6.10
2022-08-20T11:36:20.692Z,6.30
2022-08-20T11:39:03.400Z,5.07
2022-08-20T11:41:45.885Z,6.65
2022-08-20T11:44:20.722Z,6.20
2022-08-20T11:46:55.606Z,6.63
2022-08-20T11:49:26.800Z,6.40
2022-08-20T11:51:59.327Z,7.57
2022-08-20T11:54:35.722Z,8.00
2022-08-20T11:57:14.097Z,5.88
2022-08-20T12:00:07.544Z,4.97
2022-08-20T12:02:39.608Z,5.05
2022-08-20T12:05:12.308Z,5.18
2022-08-20T12:07:45.300Z,3.83
2022-08-20T12:10:24.438Z,4.53
2022-08-20T12:13:06.800Z,3.47
2022-08-20T12:15:54.079Z,5.20
2022-08-20T12:18:32.588Z,4.65
2022-08-20T12:21:04.512Z,4.60
2022-08-20T12:23:42.078Z,5.88
2022-08-20T12:26:18.439Z,6.10
2022-08-20T12:29:12.000Z,4.10
2022-08-20T12:31:47.969Z,3.97
2022-08-20T12:34:18.568Z,2.13
2022-08-20T12:37:06.351Z,7.10
2022-08-20T12:39:42.299Z,3.95
2022-08-20T12:42:32.152Z,5.07
2022-08-20T12:45:19.169Z,5.55
2022-08-20T12:48:06.868Z,5.07
2022-08-20T12:50:46.547Z,4.88
2022-08-20T12:53:21.856Z,5.82
2022-08-20T12:56:04.084Z,4.25
2022-08-20T12:58:41.289Z,4.65
2022-08-20T13:01:31.607Z,4.22
2022-08-20T13:04:03.882Z,6.18
2022-08-20T13:06:38.561Z,6.85
2022-08-20T13:09:18.125Z,4.25
2022-08-20T13:11:47.650Z,4.82
2022-08-20T13:14:22.092Z,4.43
2022-08-20T13:17:01.578Z,5.22
2022-08-20T13:19:40.095Z,4.30
2022-08-20T13:22:12.257Z,5.15
2022-08-20T13:24:53.184Z,6.95
2022-08-20T13:27:23.070Z,4.93
2022-08-20T13:30:05.497Z,7.38
2022-08-20T13:32:38.099Z,5.72
2022-08-20T13:35:15.424Z,5.43
2022-08-20T13:37:45.277Z,5.40
2022-08-20T13:40:27.156Z,4.78
2022-08-20T13:43:07.382Z,7.22
2022-08-20T13:45:43.995Z,4.13
2022-08-20T13:48:21.402Z,5.57
2022-08-20T13:50:58.254Z,6.85
2022-08-20T13:53:30.669Z,5.75
2022-08-20T13:56:08.456Z,8.05
2022-08-20T13:58:37.736Z,8.10
2022-08-20T14:01:11.974Z,4.70
2022-08-20T14:03:56.829Z,5.60
2022-08-20T14:06:32.506Z,7.35
2022-08-20T14:09:06.919Z,6.20
2022-08-20T14:11:39.190Z,7.57
2022-08-20T14:14:13.273Z,8.18
2022-08-20T14:16:51.248Z,5.05
2022-08-20T14:19:23.596Z,4.03
2022-08-20T14:22:06.717Z,7.13
2022-08-20T14:24:58.282Z,6.55
2022-08-20T14:27:31.372Z,6.72
2022-08-20T14:30:26.084Z,5.85
2022-08-20T14:33:02.154Z,8.25
2022-08-20T14:35:35.998Z,8.30
2022-08-20T14:38:11.745Z,8.93
2022-08-20T14:40:45.142Z,4.32
2022-08-20T14:43:45.363Z,5.25
2022-08-20T14:46:21.106Z,6.82
2022-08-20T14:48:56.796Z,5.55
2022-08-20T14:51:37.314Z,5.35
2022-08-20T14:54:09.711Z,7.78
2022-08-20T14:56:49.711Z,5.65
2022-08-20T14:59:26.392Z,8.00
2022-08-20T15:02:03.288Z,6.78
2022-08-20T15:04:54.411Z,6.38
2022-08-20T15:07:30.008Z,7.10
2022-08-20T15:10:18.510Z,11.38
2022-08-20T15:12:57.603Z,6.07
2022-08-20T15:15:31.713Z,8.25
2022-08-20T15:18:02.186Z,7.35
2022-08-20T15:20:53.469Z,6.93
2022-08-20T15:23:24.379Z,7.22
2022-08-20T15:26:00.095Z,9.52
2022-08-20T15:28:49.015Z,6.00
2022-08-20T15:31:33.398Z,4.55
2022-08-20T15:34:10.634Z,7.25
2022-08-20T15:36:52.713Z,4.28
2022-08-20T15:39:22.627Z,7.72
2022-08-20T15:42:00.331Z,8.63
2022-08-20T15:44:33.341Z,7.60
2022-08-20T15:47:35.144Z,8.10
2022-08-20T15:50:17.336Z,5.25
2022-08-20T15:52:57.536Z,6.90
2022-08-20T15:55:31.011Z,6.72
2022-08-20T15:58:15.578Z,12.60
2022-08-20T16:01:24.041Z,5.97
2022-08-20T16:04:23.949Z,7.57
2022-08-20T16:07:06.659Z,5.20
2022-08-20T16:09:57.426Z,6.65
2022-08-20T16:12:38.614Z,8.10
2022-08-20T16:15:24.910Z,7.78
2022-08-20T16:18:06.878Z,6.18
2022-08-20T16:20:56.112Z,5.60
2022-08-20T16:23:39.433Z,6.65
2022-08-20T16:26:30.097Z,6.60
2022-08-20T16:29:11.759Z,5.68
2022-08-20T16:31:51.670Z,7.43
2022-08-20T16:34:36.457Z,4.45
2022-08-20T16:37:25.394Z,4.53
2022-08-20T16:40:21.376Z,6.88
2022-08-20T16:43:02.295Z,6.47
2022-08-20T16:45:51.564Z,6.07
2022-08-20T16:48:43.902Z,6.32
2022-08-20T16:51:22.194Z,5.93
2022-08-20T16:54:03.668Z,5.78
2022-08-20T16:56:42.042Z,6.10
2022-08-20T16:59:28.787Z,7.05
2022-08-20T17:02:12.120Z,5.55
2022-08-20T17:04:59.317Z,5.68
2022-08-20T17:07:51.285Z,6.10
2022-08-20T17:10:35.205Z,5.50
2022-08-20T17:13:30.986Z,5.68
2022-08-20T17:16:23.681Z,5.68
2022-08-20T17:19:15.377Z,4.25
2022-08-20T17:22:11.476Z,5.70
2022-08-20T17:24:45.977Z,5.93
2022-08-20T17:27:21.072Z,4.53
2022-08-20T17:30:00.635Z,4.93
2022-08-20T17:32:37.109Z,4.13
2022-08-20T17:35:07.748Z,3.95
2022-08-20T17:37:51.869Z,7.68
2022-08-20T17:40:49.958Z,5.88
2022-08-20T17:43:36.092Z,5.90
2022-08-20T17:46:20.347Z,6.75
2022-08-20T17:48:56.678Z,6.50
2022-08-20T17:51:50.091Z,6.97
2022-08-20T17:54:29.829Z,5.13
2022-08-20T17:57:09.539Z,6.55
2022-08-20T18:00:00.852Z,6.43
2022-08-20T18:02:37.172Z,5.65
2022-08-20T18:05:19.017Z,6.32
2022-08-20T18:08:06.529Z,6.18
2022-08-20T18:10:46.145Z,7.15
2022-08-20T18:13:23.230Z,9.80
2022-08-20T18:16:04.433Z,7.18
2022-08-20T18:18:56.297Z,6.25
2022-08-20T18:22:24.711Z,5.53
2022-08-20T18:25:11.369Z,7.03
2022-08-20T18:28:00.584Z,4.93
2022-08-20T18:30:48.088Z,7.38
2022-08-20T18:33:36.805Z,4.13
2022-08-20T18:36:18.702Z,5.28
2022-08-20T18:39:05.757Z,5.35
2022-08-20T18:41:44.030Z,4.55
2022-08-20T18:44:27.174Z,7.10
2022-08-20T18:47:03.646Z,6.13
2022-08-20T18:49:36.948Z,5.13
2022-08-20T18:52:17.877Z,3.55
2022-08-20T18:54:55.684Z,3.78
2022-08-20T18:57:40.537Z,4.78
2022-08-20T19:00:18.256Z,3.58
2022-08-20T19:02:58.477Z,6.93
2022-08-20T19:05:42.865Z,6.05
2022-08-20T19:08:17.901Z,3.88
2022-08-20T19:11:02.545Z,4.57
2022-08-20T19:13:52.631Z,6.90
2022-08-20T19:16:28.948Z,5.57
2022-08-20T19:19:28.549Z,5.20
2022-08-20T19:22:07.607Z,5.47
2022-08-20T19:24:56.688Z,7.85
2022-08-20T19:27:33.629Z,3.53
2022-08-20T19:30:25.116Z,5.75
2022-08-20T19:32:55.103Z,5.75
2022-08-20T19:35:27.424Z,5.95
2022-08-20T19:38:02.696Z,3.70
2022-08-20T19:40:39.301Z,5.55
2022-08-20T19:43:22.766Z,8.73
2022-08-20T19:46:06.351Z,6.95
2022-08-20T19:48:54.793Z,7.18
2022-08-20T19:51:45.790Z,5.63
2022-08-20T19:54:24.463Z,8.50
2022-08-20T19:56:59.711Z,6.35
2022-08-20T19:59:39.551Z,4.05
2022-08-20T20:02:21.654Z,4.60
2022-08-20T20:04:58.042Z,7.13
2022-08-20T20:07:31.437Z,5.00
2022-08-20T20:10:11.017Z,8.10
2022-08-20T20:12:44.964Z,6.53
2022-08-20T20:15:18.634Z,6.32
2022-08-20T20:17:59.015Z,7.53
2022-08-20T20:20:34.419Z,10.18
2022-08-20T20:23:22.219Z,7.70
2022-08-20T20:26:03.123Z,9.00
2022-08-20T20:28:47.274Z,8.68
2022-08-20T20:31:29.664Z,9.07
2022-08-20T20:34:13.572Z,8.85
2022-08-20T20:36:54.968Z,5.60
2022-08-20T20:39:41.694Z,6.93
2022-08-20T20:42:19.797Z,5.43
2022-08-20T20:45:00.386Z,8.77
2022-08-20T20:48:03.310Z,10.90
2022-08-20T20:50:38.168Z,8.00
2022-08-20T20:53:08.169Z,5.50
2022-08-20T20:55:45.389Z,7.00
2022-08-20T20:58:27.869Z,6.87
2022-08-20T21:01:12.161Z,9.20
2022-08-20T21:03:51.156Z,7.03
2022-08-20T21:06:27.631Z,6.20
2022-08-20T21:09:00.630Z,6.43
2022-08-20T21:11:52.108Z,5.20
2022-08-20T21:14:30.866Z,6.77
2022-08-20T21:17:04.759Z,7.97
2022-08-20T21:19:41.750Z,8.73
2022-08-20T21:22:20.702Z,5.67
2022-08-20T21:25:12.049Z,6.67
2022-08-20T21:27:44.693Z,7.43
2022-08-20T21:30:21.783Z,8.67
2022-08-20T21:32:57.095Z,7.07
2022-08-20T21:35:37.723Z,6.60
2022-08-20T21:38:07.273Z,7.40
2022-08-20T21:40:46.379Z,10.10
2022-08-20T21:43:18.731Z,7.00
2022-08-20T21:45:50.343Z,5.53
2022-08-20T21:48:23.373Z,6.87
2022-08-20T21:50:56.752Z,9.07
2022-08-20T21:53:29.143Z,8.30
2022-08-20T21:56:02.595Z,6.63
2022-08-20T21:58:32.033Z,8.23
2022-08-20T22:01:07.090Z,6.03
2022-08-20T22:03:49.505Z,6.10
2022-08-20T22:06:26.744Z,6.97
2022-08-20T22:09:03.705Z,6.43
2022-08-20T22:11:33.845Z,7.57
2022-08-20T22:14:11.008Z,7.63
2022-08-20T22:16:50.142Z,5.60
2022-08-20T22:19:27.716Z,5.33
2022-08-20T22:22:37.302Z,4.83
2022-08-20T22:25:10.378Z,6.67
2022-08-20T22:27:54.063Z,8.73
2022-08-20T22:30:29.390Z,7.13
2022-08-20T22:35:52.439Z,7.73
2022-08-20T22:38:26.634Z,8.27
2022-08-20T22:40:56.158Z,8.33
2022-08-20T22:43:32.436Z,7.80
2022-08-20T22:46:09.121Z,7.17
2022-08-20T22:48:47.669Z,13.87
2022-08-20T22:51:30.390Z,6.37
2022-08-20T22:54:02.297Z,6.43
2022-08-20T22:56:36.974Z,8.37
2022-08-20T22:59:25.837Z,7.90
2022-08-20T23:01:58.941Z,9.70
2022-08-20T23:04:32.423Z,9.10
2022-08-20T23:07:13.102Z,6.23
2022-08-20T23:10:00.511Z,5.73
2022-08-20T23:12:34.467Z,7.80
2022-08-20T23:15:07.476Z,6.90
2022-08-20T23:17:38.436Z,10.57
2022-08-20T23:20:18.522Z,7.60
2022-08-20T23:22:48.102Z,8.70
2022-08-20T23:25:34.298Z,8.60
2022-08-20T23:28:16.968Z,6.87
2022-08-20T23:30:47.932Z,7.47
2022-08-20T23:33:20.578Z,7.47
2022-08-20T23:35:55.861Z,7.47
2022-08-20T23:38:35.096Z,5.17
2022-08-20T23:41:13.275Z,6.07
2022-08-20T23:43:42.709Z,6.07
2022-08-20T23:46:16.987Z,6.70
2022-08-20T23:48:48.306Z,5.90
2022-08-20T23:51:23.232Z,4.67
2022-08-20T23:53:53.117Z,5.53
2022-08-20T23:56:32.354Z,7.57
2022-08-20T23:59:03.721Z,7.70
